Time;durP1;ratioP1;P1;durP2;ratioP2;P2;SDS_P1;SDS_P2;PMS_P1;PMS_P2;Temp;Humidity;BMP_temperature;BMP_pressure;BME280_temperature;BME280_humidity;BME280_pressure;Samples;Min_cycle;Max_cycle;Signal;HPM_P1;HPM_P2
2022/07/24 00:01:08;275322.00;0.92;475.49;0.00;0.00;0.62;;;;;26.30;1.00;;;;;;2252809;61;1664;-86
2022/07/24 00:03:35;381585.00;1.27;658.15;149.00;0.00;0.88;;;;;26.50;1.00;;;;;;2252806;61;2019;-86
2022/07/24 00:06:02;253684.00;0.85;438.29;0.00;0.00;0.62;;;;;26.50;1.00;;;;;;2252964;61;988;-86
2022/07/24 00:08:29;212899.00;0.71;368.12;0.00;0.00;0.62;;;;;26.50;1.00;;;;;;2252928;61;1085;-86
2022/07/24 00:10:57;164556.00;0.55;284.89;0.00;0.00;0.62;;;;;26.30;1.00;;;;;;2252901;61;870;-86
2022/07/24 00:13:23;224918.00;0.75;388.81;35475.00;0.12;62.06;;;;;26.50;1.00;;;;;;2252870;61;1410;-85
2022/07/24 00:15:50;162116.00;0.54;280.68;0.00;0.00;0.62;;;;;26.50;1.00;;;;;;2252899;61;1029;-86
2022/07/24 00:18:19;433853.00;1.45;748.01;123685.00;0.41;214.44;;;;;26.50;1.00;;;;;;2252504;61;966;-87
2022/07/24 00:20:46;338650.00;1.13;584.35;36856.00;0.12;64.45;;;;;26.60;1.00;;;;;;2252864;61;1642;-87
2022/07/24 00:23:13;508836.00;1.70;877.04;54296.00;0.18;94.62;;;;;26.70;1.00;;;;;;2252868;61;2022;-85
2022/07/24 00:25:40;171678.00;0.57;297.16;0.00;0.00;0.62;;;;;26.50;1.00;;;;;;2252902;61;1079;-88
2022/07/24 00:28:07;390335.00;1.30;673.19;106369.00;0.35;184.56;;;;;26.00;1.00;;;;;;2252868;61;1740;-86
2022/07/24 00:30:35;246430.00;0.82;425.81;15567.00;0.05;27.59;;;;;25.50;1.00;;;;;;2252845;61;1026;-86
2022/07/24 00:33:02;150310.00;0.50;260.34;0.00;0.00;0.62;;;;;25.20;1.00;;;;;;2252775;61;1322;-85
2022/07/24 00:35:30;361245.00;1.20;623.19;4095.00;0.01;7.72;;;;;25.20;1.00;;;;;;2252765;61;1025;-85
2022/07/24 00:37:57;121598.00;0.41;210.84;0.00;0.00;0.62;;;;;25.50;1.00;;;;;;2252740;61;1447;-86
2022/07/24 00:40:25;310952.00;1.04;536.75;0.00;0.00;0.62;;;;;25.70;1.00;;;;;;2252779;61;1430;-86
2022/07/24 00:42:52;225580.00;0.75;389.94;0.00;0.00;0.62;;;;;25.60;1.00;;;;;;2252700;61;2005;-87
2022/07/24 00:45:20;226688.00;0.76;391.85;0.00;0.00;0.62;;;;;25.30;1.00;;;;;;2252608;61;1632;-86
2022/07/24 00:47:50;65851.00;0.22;114.59;0.00;0.00;0.62;;;;;25.40;1.00;;;;;;2252733;61;1130;-86
2022/07/24 00:50:17;622618.00;2.08;1073.29;79120.00;0.26;137.52;;;;;25.30;1.00;;;;;;2252745;61;1064;-86
2022/07/24 00:52:46;276393.00;0.92;477.34;0.00;0.00;0.62;;;;;25.10;1.00;;;;;;2252689;61;1395;-86
2022/07/24 00:55:15;306795.00;1.02;529.60;21900.00;0.07;38.56;;;;;24.90;1.00;;;;;;2252734;61;1624;-86
2022/07/24 00:57:43;274278.00;0.91;473.70;0.00;0.00;0.62;;;;;24.80;1.00;;;;;;2252689;61;1416;-87
2022/07/24 01:00:12;233884.00;0.78;404.23;0.00;0.00;0.62;;;;;24.40;1.00;;;;;;2252658;61;1463;-87
2022/07/24 01:02:41;234523.00;0.78;405.33;56221.00;0.19;97.94;;;;;24.50;1.00;;;;;;2252572;61;2014;-85
2022/07/24 01:05:10;194772.00;0.65;336.92;49301.00;0.16;85.98;;;;;24.60;1.00;;;;;;2252671;61;1471;-85
2022/07/24 01:07:37;260451.00;0.87;449.92;63738.00;0.21;110.94;;;;;24.90;1.00;;;;;;2252606;61;1360;-85
2022/07/24 01:10:07;317647.00;1.06;548.25;0.00;0.00;0.62;;;;;25.10;1.00;;;;;;2252641;61;990;-85
2022/07/24 01:12:37;236043.00;0.79;407.94;0.00;0.00;0.62;;;;;25.00;1.00;;;;;;2252614;61;1284;-86
2022/07/24 01:15:07;459870.00;1.53;792.76;0.00;0.00;0.62;;;;;25.20;1.00;;;;;;2252667;61;1047;-87
2022/07/24 01:17:37;206456.00;0.69;357.04;0.00;0.00;0.62;;;;;25.30;1.00;;;;;;2252696;61;1024;-86
2022/07/24 01:20:06;307775.00;1.03;531.28;0.00;0.00;0.62;;;;;25.40;1.00;;;;;;2252714;61;1018;-86
2022/07/24 01:22:34;263082.00;0.88;454.45;0.00;0.00;0.62;;;;;25.50;1.00;;;;;;2252663;61;2002;-86
2022/07/24 01:25:01;235052.00;0.78;406.24;0.00;0.00;0.62;;;;;25.60;1.00;;;;;;2252687;61;1423;-85
2022/07/24 01:27:28;142555.00;0.48;246.98;0.00;0.00;0.62;;;;;25.60;1.00;;;;;;2252647;61;877;-87
2022/07/24 01:29:55;241045.00;0.80;416.55;0.00;0.00;0.62;;;;;25.20;1.00;;;;;;2252660;61;1012;-86
2022/07/24 01:32:23;208339.00;0.69;360.28;0.00;0.00;0.62;;;;;25.00;1.00;;;;;;2252591;61;1576;-86
2022/07/24 01:34:50;196764.00;0.66;340.35;0.00;0.00;0.62;;;;;25.10;1.00;;;;;;2252624;61;1013;-86
2022/07/24 01:37:17;240962.00;0.80;416.41;0.00;0.00;0.62;;;;;25.20;1.00;;;;;;2252395;61;1024;-86
2022/07/24 01:39:46;288233.00;0.96;497.69;0.00;0.00;0.62;;;;;25.30;1.00;;;;;;2252507;61;1016;-87
2022/07/24 01:42:13;196808.00;0.66;340.43;0.00;0.00;0.62;;;;;25.00;1.00;;;;;;2252447;61;1997;-84
2022/07/24 01:44:39;139052.00;0.46;240.94;0.00;0.00;0.62;;;;;24.70;1.00;;;;;;2252653;61;1016;-86
2022/07/24 01:47:06;183053.00;0.61;316.75;0.00;0.00;0.62;;;;;24.80;1.00;;;;;;2252525;61;1611;-86
2022/07/24 01:49:33;259064.00;0.86;447.54;0.00;0.00;0.62;;;;;24.90;1.00;;;;;;2252486;61;1578;-86
2022/07/24 01:52:00;261531.00;0.87;451.78;0.00;0.00;0.62;;;;;25.20;1.00;;;;;;2252524;61;1387;-87
2022/07/24 01:54:27;129815.00;0.43;225.01;0.00;0.00;0.62;;;;;25.40;1.00;;;;;;2252656;61;996;-86
2022/07/24 01:56:55;166121.00;0.55;287.58;0.00;0.00;0.62;;;;;25.60;1.00;;;;;;2252543;61;1465;-87
2022/07/24 01:59:22;150204.00;0.50;260.16;0.00;0.00;0.62;;;;;25.60;1.00;;;;;;2252524;61;1466;-86
2022/07/24 02:01:49;382100.00;1.27;659.03;50994.00;0.17;88.91;;;;;25.60;1.00;;;;;;2252530;61;1285;-86
2022/07/24 02:04:16;297565.00;0.99;513.73;34032.00;0.11;59.56;;;;;25.60;1.00;;;;;;2252454;61;2030;-86
2022/07/24 02:06:43;296989.00;0.99;512.74;0.00;0.00;0.62;;;;;25.50;1.00;;;;;;2252562;61;1110;-86
2022/07/24 02:09:10;372023.00;1.24;641.71;66063.00;0.22;114.96;;;;;25.60;1.00;;;;;;2252621;61;984;-86
2022/07/24 02:11:37;196204.00;0.65;339.39;0.00;0.00;0.62;;;;;25.60;1.00;;;;;;2252457;61;1457;-86
2022/07/24 02:14:08;251396.00;0.84;434.35;0.00;0.00;0.62;;;;;25.60;1.00;;;;;;2252540;61;1106;-86
2022/07/24 02:16:35;214111.00;0.71;370.21;0.00;0.00;0.62;;;;;25.50;1.00;;;;;;2252545;61;1541;-86
2022/07/24 02:19:01;521330.00;1.74;898.56;149064.00;0.50;258.19;;;;;25.60;1.00;;;;;;2252545;61;1131;-87
2022/07/24 02:21:28;292030.00;0.97;504.22;0.00;0.00;0.62;;;;;25.60;1.00;;;;;;2252549;61;1076;-86
2022/07/24 02:23:55;163851.00;0.55;283.67;0.00;0.00;0.62;;;;;25.50;1.00;;;;;;2252430;61;2014;-86
2022/07/24 02:26:22;264331.00;0.88;456.60;0.00;0.00;0.62;;;;;25.60;1.00;;;;;;2252463;61;1112;-86
2022/07/24 02:28:49;216084.00;0.72;373.61;0.00;0.00;0.62;;;;;25.40;1.00;;;;;;2252485;61;1521;-86
2022/07/24 02:31:18;440356.00;1.47;759.20;83658.00;0.28;145.36;;;;;25.40;1.00;;;;;;2252464;61;2207;-86
2022/07/24 02:33:44;158975.00;0.53;275.27;0.00;0.00;0.62;;;;;25.10;1.00;;;;;;2252377;61;1596;-87
2022/07/24 02:36:14;195583.00;0.65;338.32;0.00;0.00;0.62;;;;;24.90;1.00;;;;;;2252452;61;960;-88
2022/07/24 02:38:42;314084.00;1.05;542.13;0.00;0.00;0.62;;;;;25.00;1.00;;;;;;2252480;61;1548;-85
2022/07/24 02:41:09;239832.00;0.80;414.46;0.00;0.00;0.62;;;;;25.10;1.00;;;;;;2252665;61;1015;-85
2022/07/24 02:43:38;122267.00;0.41;211.99;0.00;0.00;0.62;;;;;24.90;1.00;;;;;;2253160;61;2001;-87
2022/07/24 02:46:05;266776.00;0.89;460.80;0.00;0.00;0.62;;;;;24.90;1.00;;;;;;2253121;61;1441;-85
2022/07/24 02:48:33;246164.00;0.82;425.35;0.00;0.00;0.62;;;;;25.20;1.00;;;;;;2253091;61;1018;-86
2022/07/24 02:51:00;408087.00;1.36;703.71;0.00;0.00;0.62;;;;;25.40;1.00;;;;;;2253110;61;1499;-87
2022/07/24 02:53:27;461811.00;1.54;796.10;44087.00;0.15;76.96;;;;;25.30;1.00;;;;;;2253158;61;1408;-87
2022/07/24 02:55:54;561455.00;1.87;967.71;0.00;0.00;0.62;;;;;25.20;1.00;;;;;;2253021;61;1440;-86
2022/07/24 02:58:21;361963.00;1.21;624.42;42544.00;0.14;74.29;;;;;25.30;1.00;;;;;;2253035;61;1455;-85
2022/07/24 03:00:48;74582.00;0.25;129.68;0.00;0.00;0.62;;;;;25.40;1.00;;;;;;2253080;61;1131;-87
2022/07/24 03:03:15;148767.00;0.50;257.68;0.00;0.00;0.62;;;;;25.20;1.00;;;;;;2253020;61;1989;-87
2022/07/24 03:05:45;222129.00;0.74;384.01;0.00;0.00;0.62;;;;;25.30;1.00;;;;;;2253109;61;1005;-86
2022/07/24 03:08:12;163283.00;0.54;282.70;0.00;0.00;0.62;;;;;25.40;1.00;;;;;;2253013;61;1014;-87
2022/07/24 03:10:39;175577.00;0.59;303.87;0.00;0.00;0.62;;;;;25.20;1.00;;;;;;2252992;61;1566;-86
2022/07/24 03:13:06;236289.00;0.79;408.37;0.00;0.00;0.62;;;;;25.00;1.00;;;;;;2253095;61;1411;-86
2022/07/24 03:15:33;212894.00;0.71;368.12;0.00;0.00;0.62;;;;;25.00;1.00;;;;;;2252970;61;1402;-84
2022/07/24 03:18:03;218682.00;0.73;378.08;0.00;0.00;0.62;;;;;24.90;1.00;;;;;;2253046;61;1375;-85
2022/07/24 03:20:30;221919.00;0.74;383.65;48400.00;0.16;84.42;;;;;25.10;1.00;;;;;;2252924;61;1959;-87
2022/07/24 03:22:59;325120.00;1.08;561.10;0.00;0.00;0.62;;;;;25.20;1.00;;;;;;2252969;61;2006;-87
2022/07/24 03:25:26;249163.00;0.83;430.51;37378.00;0.12;65.35;;;;;25.20;1.00;;;;;;2252996;61;1015;-86
2022/07/24 03:27:53;338355.00;1.13;583.85;0.00;0.00;0.62;;;;;25.20;1.00;;;;;;2253039;61;1102;-86
2022/07/24 03:30:22;275617.00;0.92;476.00;0.00;0.00;0.62;;;;;25.10;1.00;;;;;;2252970;61;1331;-86
2022/07/24 03:32:50;256521.00;0.86;443.17;0.00;0.00;0.62;;;;;24.90;1.00;;;;;;2252873;61;1446;-85
2022/07/24 03:35:17;291978.00;0.97;504.13;32283.00;0.11;56.53;;;;;24.30;1.00;;;;;;2252927;61;1343;-86
2022/07/24 03:37:44;250037.00;0.83;432.01;0.00;0.00;0.62;;;;;23.50;1.00;;;;;;2252902;61;942;-86
2022/07/24 03:40:13;288971.00;0.96;498.96;36114.00;0.12;63.16;;;;;23.00;1.00;;;;;;2252874;61;1088;-87
2022/07/24 03:42:41;301377.00;1.00;520.29;71637.00;0.24;124.59;;;;;22.70;1.00;;;;;;2252817;61;1928;-86
2022/07/24 03:45:08;186245.00;0.62;322.24;0.00;0.00;0.62;;;;;22.70;1.00;;;;;;2252956;61;1156;-87
2022/07/24 03:47:37;261175.00;0.87;451.17;0.00;0.00;0.62;;;;;22.70;1.00;;;;;;2252863;61;1545;-87
2022/07/24 03:50:05;171459.00;0.57;296.78;0.00;0.00;0.62;;;;;22.60;1.00;;;;;;2252925;61;1011;-87
2022/07/24 03:52:32;294960.00;0.98;509.26;28024.00;0.09;49.16;;;;;22.70;1.00;;;;;;2252852;61;1412;-87
2022/07/24 03:55:00;166904.00;0.56;288.93;13548.00;0.05;24.10;;;;;22.60;1.00;;;;;;2252845;61;1454;-87
2022/07/24 03:57:28;506997.00;1.69;873.87;89256.00;0.30;155.02;;;;;22.60;1.00;;;;;;2252855;61;1146;-87
2022/07/24 03:59:55;160448.00;0.53;277.81;0.00;0.00;0.62;;;;;22.80;1.00;;;;;;2252918;61;921;-87
2022/07/24 04:02:22;295610.00;0.99;510.37;23511.00;0.08;41.35;;;;;22.90;1.00;;;;;;2252862;61;1370;-87
2022/07/24 04:04:49;420648.00;1.40;725.30;106559.00;0.36;184.89;;;;;23.00;1.00;;;;;;2252770;61;1923;-88
2022/07/24 04:07:16;314873.00;1.05;543.49;0.00;0.00;0.62;;;;;22.90;1.00;;;;;;2252730;61;995;-88
2022/07/24 04:09:43;301422.00;1.00;520.36;0.00;0.00;0.62;;;;;23.10;1.00;;;;;;2252760;61;2221;-87
2022/07/24 04:12:10;278032.00;0.93;480.15;0.00;0.00;0.62;;;;;23.70;1.00;;;;;;2252784;61;1371;-86
2022/07/24 04:14:38;194364.00;0.65;336.22;0.00;0.00;0.62;;;;;23.70;1.00;;;;;;2252828;61;1119;-87
2022/07/24 04:17:05;222800.00;0.74;385.16;0.00;0.00;0.62;;;;;23.70;1.00;;;;;;2252857;61;969;-86
2022/07/24 04:19:32;454896.00;1.52;784.20;67263.00;0.22;117.03;;;;;23.80;1.00;;;;;;2252705;61;1576;-85
2022/07/24 04:21:59;244218.00;0.81;422.01;12343.00;0.04;22.01;;;;;24.00;1.00;;;;;;2252783;61;1552;-86
2022/07/24 04:24:26;297144.00;0.99;513.01;0.00;0.00;0.62;;;;;24.30;1.00;;;;;;2252713;61;2009;-87
2022/07/24 04:26:53;125044.00;0.42;216.78;0.00;0.00;0.62;;;;;24.50;1.00;;;;;;2252761;61;1095;-86
2022/07/24 04:29:20;294021.00;0.98;507.64;0.00;0.00;0.62;;;;;24.50;1.00;;;;;;2252800;61;1094;-86
2022/07/24 04:31:49;146567.00;0.49;253.89;0.00;0.00;0.62;;;;;24.50;1.00;;;;;;2252742;61;1337;-86
2022/07/24 04:34:16;186656.00;0.62;322.95;0.00;0.00;0.62;;;;;24.40;1.00;;;;;;2252670;61;1019;-85
2022/07/24 04:36:43;206782.00;0.69;357.60;0.00;0.00;0.62;;;;;24.30;1.00;;;;;;2252675;61;1449;-85
2022/07/24 04:39:10;150200.00;0.50;260.15;0.00;0.00;0.62;;;;;24.30;1.00;;;;;;2252710;61;1442;-85
2022/07/24 04:41:38;175015.00;0.58;302.90;0.00;0.00;0.62;;;;;24.00;1.00;;;;;;2252733;61;1316;-86
2022/07/24 04:44:07;230664.00;0.77;398.69;8487.00;0.03;15.33;;;;;23.80;1.00;;;;;;2252569;61;1920;-85
2022/07/24 04:46:36;237366.00;0.79;410.22;17457.00;0.06;30.87;;;;;23.70;1.00;;;;;;2252560;61;1171;-87
2022/07/24 04:49:05;205336.00;0.68;355.11;0.00;0.00;0.62;;;;;23.80;1.00;;;;;;2252598;61;1107;-87
2022/07/24 04:51:32;198356.00;0.66;343.09;0.00;0.00;0.62;;;;;23.90;1.00;;;;;;2252767;61;886;-87
2022/07/24 04:53:59;268654.00;0.90;464.03;0.00;0.00;0.62;;;;;23.90;1.00;;;;;;2252653;61;1000;-87
2022/07/24 04:56:30;238065.00;0.79;411.42;223.00;0.00;1.01;;;;;23.70;1.00;;;;;;2252720;61;1026;-86
2022/07/24 04:58:57;181492.00;0.60;314.06;0.00;0.00;0.62;;;;;23.80;1.00;;;;;;2252691;61;1507;-87
2022/07/24 05:01:24;238407.00;0.79;412.01;44776.00;0.15;78.15;;;;;23.70;1.00;;;;;;2252603;61;1490;-87
2022/07/24 05:03:51;128340.00;0.43;222.47;0.00;0.00;0.62;;;;;23.80;1.00;;;;;;2252349;61;1924;-87
2022/07/24 05:06:25;237949.00;0.79;411.22;36785.00;0.12;64.33;;;;;24.10;1.00;;;;;;2252669;61;988;-87
2022/07/24 05:08:52;203214.00;0.68;351.46;0.00;0.00;0.62;;;;;24.10;1.00;;;;;;2252631;61;985;-87
2022/07/24 05:11:19;255733.00;0.85;441.81;0.00;0.00;0.62;;;;;23.80;1.00;;;;;;2252672;61;911;-87
2022/07/24 05:13:46;416182.00;1.39;717.63;0.00;0.00;0.62;;;;;24.00;1.00;;;;;;2252612;61;1430;-87
2022/07/24 05:16:13;162916.00;0.54;282.06;0.00;0.00;0.62;;;;;24.10;1.00;;;;;;2252634;61;913;-87
2022/07/24 05:18:42;314549.00;1.05;542.93;0.00;0.00;0.62;;;;;24.30;1.00;;;;;;2252630;61;1090;-85
2022/07/24 05:21:09;529343.00;1.76;912.36;9976.00;0.03;17.91;;;;;24.50;1.00;;;;;;2252531;61;1530;-86
2022/07/24 05:23:38;141618.00;0.47;245.36;0.00;0.00;0.62;;;;;24.90;1.00;;;;;;2252477;61;1920;-88
2022/07/24 05:26:07;358698.00;1.20;618.81;53209.00;0.18;92.74;;;;;25.10;1.00;;;;;;2252635;61;1107;-85
2022/07/24 05:28:35;218619.00;0.73;377.97;0.00;0.00;0.62;;;;;25.80;1.00;;;;;;2252568;61;1456;-85
2022/07/24 05:31:02;466009.00;1.55;803.32;0.00;0.00;0.62;;;;;26.10;1.00;;;;;;2252446;61;1279;-86
2022/07/24 05:33:29;233344.00;0.78;403.30;0.00;0.00;0.62;;;;;26.50;1.00;;;;;;2252637;61;1409;-86
2022/07/24 05:35:57;337251.00;1.12;581.95;33079.00;0.11;57.91;;;;;26.80;1.00;;;;;;2252493;61;1501;-86
2022/07/24 05:38:24;245368.00;0.82;423.98;45206.00;0.15;78.89;;;;;26.70;1.00;;;;;;2252633;61;924;-86
2022/07/24 05:40:55;219917.00;0.73;380.20;29357.00;0.10;51.47;;;;;26.50;1.00;;;;;;2252648;61;1009;-87
2022/07/24 05:43:22;123895.00;0.41;214.80;0.00;0.00;0.62;;;;;26.40;1.00;;;;;;2252525;61;1916;-87
2022/07/24 05:45:49;186730.00;0.62;323.08;0.00;0.00;0.62;;;;;26.40;1.00;;;;;;2252566;61;1950;-87
2022/07/24 05:48:18;163484.00;0.54;283.04;0.00;0.00;0.62;;;;;26.80;1.00;;;;;;2252498;61;1700;-87
2022/07/24 05:50:45;219029.00;0.73;378.67;0.00;0.00;0.62;;;;;26.90;1.00;;;;;;2252497;61;1477;-86
2022/07/24 05:53:11;223965.00;0.75;387.17;0.00;0.00;0.62;;;;;27.20;1.00;;;;;;2252445;61;1370;-87
2022/07/24 05:55:39;257555.00;0.86;444.94;34404.00;0.11;60.21;;;;;28.00;1.00;;;;;;2252487;61;2050;-87
2022/07/24 05:58:07;295342.00;0.98;509.91;0.00;0.00;0.62;;;;;28.40;1.00;;;;;;2252560;61;1930;-87
2022/07/24 06:00:34;178415.00;0.59;308.76;0.00;0.00;0.62;;;;;28.20;1.00;;;;;;2252534;61;1021;-88
2022/07/24 06:03:01;177514.00;0.59;307.21;0.00;0.00;0.62;;;;;28.00;1.00;;;;;;2252599;61;1367;-87
2022/07/24 06:05:28;216939.00;0.72;375.08;0.00;0.00;0.62;;;;;28.20;1.00;;;;;;2252737;61;2000;-88
2022/07/24 06:07:55;149631.00;0.50;259.17;0.00;0.00;0.62;;;;;28.20;1.00;;;;;;2252669;61;1633;-86
2022/07/24 06:10:22;194717.00;0.65;336.83;0.00;0.00;0.62;;;;;28.60;1.00;;;;;;2252601;61;1429;-88
2022/07/24 06:12:49;223710.00;0.75;386.73;0.00;0.00;0.62;;;;;29.20;1.00;;;;;;2252603;61;1662;-88
2022/07/24 06:15:17;379425.00;1.26;654.44;50513.00;0.17;88.07;;;;;30.10;1.00;;;;;;2252519;61;944;-87
2022/07/24 06:17:44;254377.00;0.85;439.48;46174.00;0.15;80.57;;;;;30.40;1.00;;;;;;2253125;61;1548;-87
2022/07/24 06:20:12;156675.00;0.52;271.31;0.00;0.00;0.62;;;;;30.90;1.00;;;;;;2253126;61;2223;-88
2022/07/24 06:22:40;187400.00;0.62;324.23;33828.00;0.11;59.21;;;;;31.40;1.00;;;;;;2253139;61;1396;-88
2022/07/24 06:25:08;133780.00;0.45;231.85;0.00;0.00;0.62;;;;;31.80;1.00;;;;;;2253316;61;1995;-86
2022/07/24 06:27:40;4179.00;0.01;7.86;0.00;0.00;0.62;;;;;32.80;1.00;;;;;;2253164;61;1730;-87
2022/07/24 06:30:08;100861.00;0.34;175.06;0.00;0.00;0.62;;;;;33.60;1.00;;;;;;2253222;61;1713;-87
2022/07/24 06:32:36;23046.00;0.08;40.54;0.00;0.00;0.62;;;;;34.30;1.00;;;;;;2253200;61;1319;-87
2022/07/24 06:35:04;0.00;0.00;0.62;0.00;0.00;0.62;;;;;34.70;1.00;;;;;;2253286;61;1074;-87
2022/07/24 06:37:31;130170.00;0.43;225.62;0.00;0.00;0.62;;;;;35.30;1.00;;;;;;2253238;61;1115;-86
2022/07/24 06:39:57;0.00;0.00;0.62;0.00;0.00;0.62;;;;;36.10;1.00;;;;;;2253310;61;1104;-86
2022/07/24 06:42:24;194058.00;0.65;335.69;0.00;0.00;0.62;;;;;36.40;1.00;;;;;;2253297;61;1322;-87
2022/07/24 06:44:51;184458.00;0.61;319.17;43243.00;0.14;75.50;;;;;36.80;1.00;;;;;;2253033;61;1916;-87
2022/07/24 06:47:18;116980720.00;389.94;64843632.00;0.00;0.00;0.62;;;;;37.40;1.00;;;;;;2253103;61;1024;-86
2022/07/24 06:49:46;110423.00;0.37;191.56;0.00;0.00;0.62;;;;;37.70;1.00;;;;;;2253042;61;1086;-88
2022/07/24 06:52:13;31876.00;0.11;55.83;0.00;0.00;0.62;;;;;37.60;1.00;;;;;;2253135;61;1395;-88
2022/07/24 06:54:41;0.00;0.00;0.62;0.00;0.00;0.62;;;;;37.90;1.00;;;;;;2253243;61;1104;-87
2022/07/24 06:57:08;84442.00;0.28;146.71;0.00;0.00;0.62;;;;;37.40;1.00;;;;;;2253229;61;1024;-87
2022/07/24 06:59:35;224201.00;0.75;387.57;45122.00;0.15;78.75;;;;;37.90;1.00;;;;;;2253282;61;932;-88
2022/07/24 07:02:02;0.00;0.00;0.62;0.00;0.00;0.62;;;;;38.40;1.00;;;;;;2253021;61;2202;-86
2022/07/24 07:04:29;0.00;0.00;0.62;0.00;0.00;0.62;;;;;38.80;1.00;;;;;;2253085;61;1908;-86
2022/07/24 07:06:57;37572.00;0.13;65.69;0.00;0.00;0.62;;;;;39.00;1.00;;;;;;2253148;61;1098;-88
2022/07/24 07:09:24;0.00;0.00;0.62;0.00;0.00;0.62;;;;;38.60;1.00;;;;;;2253026;61;1062;-85
2022/07/24 07:11:51;46260.00;0.15;80.72;0.00;0.00;0.62;;;;;38.80;1.00;;;;;;2252905;61;1626;-87
2022/07/24 07:14:18;0.00;0.00;0.62;0.00;0.00;0.62;;;;;39.70;1.00;;;;;;2253114;61;1046;-86
2022/07/24 07:16:45;0.00;0.00;0.62;0.00;0.00;0.62;;;;;39.50;1.00;;;;;;2253087;61;1078;-85
2022/07/24 07:19:13;0.00;0.00;0.62;0.00;0.00;0.62;;;;;39.60;1.00;;;;;;2252952;61;1043;-87
2022/07/24 07:21:40;14006.00;0.05;24.89;0.00;0.00;0.62;;;;;39.50;1.00;;;;;;2252906;61;1298;-86
2022/07/24 07:24:08;121369.00;0.40;210.44;37436.00;0.12;65.45;;;;;39.00;1.00;;;;;;2252866;61;2358;-88
2022/07/24 07:26:35;29651.00;0.10;51.98;0.00;0.00;0.62;;;;;38.50;1.00;;;;;;2252993;61;1003;-88
2022/07/24 07:29:02;302663.00;1.01;522.50;57315.00;0.19;99.83;;;;;38.70;1.00;;;;;;2252960;61;1434;-88
2022/07/24 07:31:29;0.00;0.00;0.62;0.00;0.00;0.62;;;;;39.10;1.00;;;;;;2252715;61;922;-87
2022/07/24 07:33:57;122653.00;0.41;212.66;0.00;0.00;0.62;;;;;38.40;1.00;;;;;;2252678;61;1350;-87
2022/07/24 07:36:24;18994.00;0.06;33.53;0.00;0.00;0.62;;;;;38.60;1.00;;;;;;2252914;61;994;-88
2022/07/24 07:38:51;0.00;0.00;0.62;0.00;0.00;0.62;;;;;38.70;1.00;;;;;;2252998;61;2370;-88
2022/07/24 07:41:19;0.00;0.00;0.62;0.00;0.00;0.62;;;;;39.00;1.00;;;;;;2252886;61;1025;-87
2022/07/24 07:43:47;309399.00;1.03;534.08;57710.00;0.19;100.52;;;;;39.10;1.00;;;;;;2252565;61;1400;-88
2022/07/24 07:46:14;152006.00;0.51;263.26;0.00;0.00;0.62;;;;;39.20;1.00;;;;;;2252638;61;2029;-87
2022/07/24 07:48:41;9074.00;0.03;16.34;0.00;0.00;0.62;;;;;39.20;1.00;;;;;;2252608;61;1015;-86
2022/07/24 07:51:08;87196.00;0.29;151.47;1785.00;0.01;3.71;;;;;39.10;1.00;;;;;;2252646;61;1114;-87
2022/07/24 07:53:36;254.00;0.00;1.06;0.00;0.00;0.62;;;;;39.10;1.00;;;;;;2252778;61;1302;-86
2022/07/24 07:56:04;0.00;0.00;0.62;0.00;0.00;0.62;;;;;39.90;1.00;;;;;;2252648;61;1149;-87
2022/07/24 07:58:33;48005.00;0.16;83.74;0.00;0.00;0.62;;;;;39.10;1.00;;;;;;2252481;61;1082;-88
2022/07/24 08:01:03;178247.00;0.59;308.47;0.00;0.00;0.62;;;;;38.80;1.00;;;;;;2252582;61;1599;-87
2022/07/24 08:03:30;161091.00;0.54;278.92;0.00;0.00;0.62;;;;;39.00;1.00;;;;;;2252664;61;1480;-88
2022/07/24 08:05:57;104952.00;0.35;182.12;0.00;0.00;0.62;;;;;39.10;1.00;;;;;;2252453;61;2007;-86
2022/07/24 08:08:24;154568.00;0.52;267.68;0.00;0.00;0.62;;;;;39.20;1.00;;;;;;2252413;61;1466;-88
2022/07/24 08:10:51;53617.00;0.18;93.44;0.00;0.00;0.62;;;;;38.80;1.00;;;;;;2252534;61;963;-88
2022/07/24 08:13:19;40545.00;0.14;70.83;0.00;0.00;0.62;;;;;39.90;1.00;;;;;;2252650;61;1434;-88
2022/07/24 08:15:47;0.00;0.00;0.62;0.00;0.00;0.62;;;;;38.70;1.00;;;;;;2252706;61;1244;-88
2022/07/24 08:18:14;3732.00;0.01;7.09;0.00;0.00;0.62;;;;;39.60;1.00;;;;;;2252674;61;1050;-88
2022/07/24 08:20:42;92773.00;0.31;161.10;0.00;0.00;0.62;;;;;38.90;1.00;;;;;;2252750;61;1039;-89
2022/07/24 08:23:09;54758.00;0.18;95.41;0.00;0.00;0.62;;;;;38.80;1.00;;;;;;2252641;61;1641;-88
2022/07/24 08:25:36;23652.00;0.08;41.59;0.00;0.00;0.62;;;;;38.80;1.00;;;;;;2252395;61;2010;-87
2022/07/24 08:28:03;58826.00;0.20;102.45;0.00;0.00;0.62;;;;;38.80;1.00;;;;;;2252518;61;940;-87
2022/07/24 08:30:30;83944.00;0.28;145.85;0.00;0.00;0.62;;;;;38.80;1.00;;;;;;2252460;61;1058;-86
2022/07/24 08:32:58;117273640.00;390.91;65332392.00;0.00;0.00;0.62;;;;;38.80;1.00;;;;;;2252386;61;1545;-87
2022/07/24 08:35:25;133440.00;0.44;231.26;0.00;0.00;0.62;;;;;38.90;1.00;;;;;;2252560;61;1038;-89
2022/07/24 08:37:52;74322.00;0.25;129.23;0.00;0.00;0.62;;;;;39.30;1.00;;;;;;2252534;61;1048;-87
2022/07/24 08:40:19;131467.00;0.44;227.86;0.00;0.00;0.62;;;;;39.80;1.00;;;;;;2252445;61;1066;-87
2022/07/24 08:42:46;296582.00;0.99;512.04;0.00;0.00;0.62;;;;;39.80;1.00;;;;;;2252587;61;1306;-86
2022/07/24 08:45:13;275582.00;0.92;475.94;54586.00;0.18;95.12;;;;;39.50;1.00;;;;;;2252632;61;1985;-87
2022/07/24 08:47:41;294205.00;0.98;507.96;0.00;0.00;0.62;;;;;39.80;1.00;;;;;;2252565;61;1421;-86
2022/07/24 08:50:11;163747.00;0.55;283.49;0.00;0.00;0.62;;;;;40.40;1.00;;;;;;2252632;61;1083;-87
2022/07/24 08:52:39;58628.00;0.20;102.10;0.00;0.00;0.62;;;;;40.60;1.00;;;;;;2252539;61;1294;-86
2022/07/24 08:55:07;54403.00;0.18;94.80;0.00;0.00;0.62;;;;;40.10;1.00;;;;;;2252583;61;1130;-87
2022/07/24 08:57:34;63538.00;0.21;110.59;0.00;0.00;0.62;;;;;39.70;1.00;;;;;;2252443;61;1072;-87
2022/07/24 09:00:01;522786.00;1.74;901.06;4615.00;0.02;8.62;;;;;40.10;1.00;;;;;;2252544;61;1106;-88
2022/07/24 09:02:28;334757.00;1.12;577.66;50491.00;0.17;88.04;;;;;39.40;1.00;;;;;;2252474;61;1314;-87
2022/07/24 09:05:00;186501.00;0.62;322.68;0.00;0.00;0.62;;;;;39.20;1.00;;;;;;2252577;61;1912;-88
2022/07/24 09:07:31;105859.00;0.35;183.68;0.00;0.00;0.62;;;;;39.30;1.00;;;;;;2252693;61;1114;-88
2022/07/24 09:10:04;394773.00;1.32;680.82;0.00;0.00;0.62;;;;;39.40;1.00;;;;;;2252601;61;1497;-88
2022/07/24 09:12:33;149240.00;0.50;258.50;0.00;0.00;0.62;;;;;38.90;1.00;;;;;;2252484;61;1398;-87
2022/07/24 09:15:01;250277.00;0.83;432.43;33509.00;0.11;58.66;;;;;38.40;1.00;;;;;;2252484;61;1076;-87
2022/07/24 09:17:28;6255.00;0.02;11.46;0.00;0.00;0.62;;;;;38.00;1.00;;;;;;2252480;61;1117;-86
2022/07/24 09:19:57;139139.00;0.46;241.09;0.00;0.00;0.62;;;;;37.70;1.00;;;;;;2252507;61;1079;-88
2022/07/24 09:22:36;187634.00;0.63;324.63;0.00;0.00;0.62;;;;;37.60;1.00;;;;;;2252438;61;1297;-89
2022/07/24 09:25:14;119131.00;0.40;206.58;0.00;0.00;0.62;;;;;37.60;1.00;;;;;;2252326;61;2010;-87
2022/07/24 09:27:47;291802.00;0.97;503.83;0.00;0.00;0.62;;;;;37.60;1.00;;;;;;2252517;61;1129;-87
2022/07/24 09:30:25;147935.00;0.49;256.25;0.00;0.00;0.62;;;;;37.20;1.00;;;;;;2252428;61;1081;-88
2022/07/24 09:32:56;268820.00;0.90;464.31;42748.00;0.14;74.64;;;;;36.70;1.00;;;;;;2252427;61;1393;-86
2022/07/24 09:35:30;125624.00;0.42;217.78;0.00;0.00;0.62;;;;;36.90;1.00;;;;;;2252328;61;1452;-87
2022/07/24 09:38:00;142564.00;0.48;246.99;0.00;0.00;0.62;;;;;37.00;1.00;;;;;;2252388;61;1143;-86
2022/07/24 09:40:31;0.00;0.00;0.62;0.00;0.00;0.62;;;;;37.10;1.00;;;;;;2252500;61;1064;-88
2022/07/24 09:43:17;124838.00;0.42;216.43;0.00;0.00;0.62;;;;;36.60;1.00;;;;;;2252449;61;1370;-87
2022/07/24 09:45:59;113433.00;0.38;196.75;0.00;0.00;0.62;;;;;36.00;1.00;;;;;;2252280;61;1989;-86
2022/07/24 09:48:29;29607.00;0.10;51.90;0.00;0.00;0.62;;;;;36.00;1.00;;;;;;2252318;61;1078;-87
2022/07/24 09:50:59;56622.00;0.19;98.64;0.00;0.00;0.62;;;;;35.70;1.00;;;;;;2252768;61;1553;-87
2022/07/24 09:53:30;104478.00;0.35;181.30;0.00;0.00;0.62;;;;;35.60;1.00;;;;;;2252888;61;1536;-87
2022/07/24 09:56:02;243839.00;0.81;421.35;0.00;0.00;0.62;;;;;35.70;1.00;;;;;;2253036;61;1064;-88
2022/07/24 09:58:30;47424.00;0.16;82.73;0.00;0.00;0.62;;;;;35.80;1.00;;;;;;2253117;61;1089;-88
2022/07/24 10:00:59;10721.00;0.04;19.20;0.00;0.00;0.62;;;;;35.90;1.00;;;;;;2253041;61;1091;-89